sensor_id;sensor_type;location;lat;lon;timestamp;P1;durP1;ratioP1;P2;durP2;ratioP2
62435;SDS011;48480;50.252;18.848;2023-02-10T00:01:27;14.20;;;7.50;;
62435;SDS011;48480;50.252;18.848;2023-02-10T00:03:53;12.90;;;7.20;;
62435;SDS011;48480;50.252;18.848;2023-02-10T00:06:20;15.90;;;8.20;;
62435;SDS011;48480;50.252;18.848;2023-02-10T00:08:49;13.80;;;7.80;;
62435;SDS011;48480;50.252;18.848;2023-02-10T00:11:16;17.30;;;8.80;;
62435;SDS011;48480;50.252;18.848;2023-02-10T00:13:42;16.70;;;8.30;;
62435;SDS011;48480;50.252;18.848;2023-02-10T00:16:10;17.10;;;8.40;;
62435;SDS011;48480;50.252;18.848;2023-02-10T00:18:37;20.20;;;9.30;;
62435;SDS011;48480;50.252;18.848;2023-02-10T00:21:07;16.70;;;9.30;;
62435;SDS011;48480;50.252;18.848;2023-02-10T00:23:34;16.40;;;8.10;;
62435;SDS011;48480;50.252;18.848;2023-02-10T00:26:06;16.30;;;9.20;;
62435;SDS011;48480;50.252;18.848;2023-02-10T00:28:33;13.30;;;7.00;;
62435;SDS011;48480;50.252;18.848;2023-02-10T00:31:04;18.70;;;10.60;;
62435;SDS011;48480;50.252;18.848;2023-02-10T00:33:31;18.80;;;9.00;;
62435;SDS011;48480;50.252;18.848;2023-02-10T00:35:56;19.60;;;11.00;;
62435;SDS011;48480;50.252;18.848;2023-02-10T00:38:22;19.80;;;10.20;;
62435;SDS011;48480;50.252;18.848;2023-02-10T00:40:47;22.40;;;11.30;;
62435;SDS011;48480;50.252;18.848;2023-02-10T00:43:13;16.50;;;9.60;;
62435;SDS011;48480;50.252;18.848;2023-02-10T00:45:38;15.40;;;8.00;;
62435;SDS011;48480;50.252;18.848;2023-02-10T00:48:04;15.40;;;8.40;;
62435;SDS011;48480;50.252;18.848;2023-02-10T00:50:29;20.50;;;12.10;;
62435;SDS011;48480;50.252;18.848;2023-02-10T00:52:55;20.70;;;11.10;;
62435;SDS011;48480;50.252;18.848;2023-02-10T00:55:20;20.10;;;11.80;;
62435;SDS011;48480;50.252;18.848;2023-02-10T00:57:45;21.30;;;10.80;;
62435;SDS011;48480;50.252;18.848;2023-02-10T01:00:11;19.30;;;9.80;;
62435;SDS011;48480;50.252;18.848;2023-02-10T01:02:37;17.80;;;9.60;;
62435;SDS011;48480;50.252;18.848;2023-02-10T01:05:02;19.80;;;10.30;;
62435;SDS011;48480;50.252;18.848;2023-02-10T01:07:28;16.20;;;8.50;;
62435;SDS011;48480;50.252;18.848;2023-02-10T01:09:54;12.50;;;5.80;;
62435;SDS011;48480;50.252;18.848;2023-02-10T01:12:20;22.40;;;11.20;;
62435;SDS011;48480;50.252;18.848;2023-02-10T01:14:46;17.10;;;10.00;;
62435;SDS011;48480;50.252;18.848;2023-02-10T01:17:11;18.80;;;10.80;;
62435;SDS011;48480;50.252;18.848;2023-02-10T01:19:36;20.80;;;10.80;;
62435;SDS011;48480;50.252;18.848;2023-02-10T01:22:02;15.30;;;8.90;;
62435;SDS011;48480;50.252;18.848;2023-02-10T01:24:27;22.90;;;12.10;;
62435;SDS011;48480;50.252;18.848;2023-02-10T01:26:53;16.70;;;9.40;;
62435;SDS011;48480;50.252;18.848;2023-02-10T01:29:18;20.30;;;10.70;;
62435;SDS011;48480;50.252;18.848;2023-02-10T01:31:44;20.20;;;11.00;;
62435;SDS011;48480;50.252;18.848;2023-02-10T01:34:09;20.70;;;11.10;;
62435;SDS011;48480;50.252;18.848;2023-02-10T01:36:35;17.40;;;11.10;;
62435;SDS011;48480;50.252;18.848;2023-02-10T01:39:00;16.00;;;9.00;;
62435;SDS011;48480;50.252;18.848;2023-02-10T01:41:26;16.30;;;9.20;;
62435;SDS011;48480;50.252;18.848;2023-02-10T01:46:43;9.30;;;5.20;;
62435;SDS011;48480;50.252;18.848;2023-02-10T01:49:10;16.10;;;9.80;;
62435;SDS011;48480;50.252;18.848;2023-02-10T01:51:50;18.50;;;9.30;;
62435;SDS011;48480;50.252;18.848;2023-02-10T01:54:59;22.00;;;10.70;;
62435;SDS011;48480;50.252;18.848;2023-02-10T01:57:26;19.00;;;10.70;;
62435;SDS011;48480;50.252;18.848;2023-02-10T01:59:52;15.40;;;9.30;;
62435;SDS011;48480;50.252;18.848;2023-02-10T02:02:17;13.10;;;8.70;;
62435;SDS011;48480;50.252;18.848;2023-02-10T02:04:51;16.50;;;8.90;;
62435;SDS011;48480;50.252;18.848;2023-02-10T02:07:19;13.70;;;8.70;;
62435;SDS011;48480;50.252;18.848;2023-02-10T02:09:51;15.10;;;9.60;;
62435;SDS011;48480;50.252;18.848;2023-02-10T02:28:56;14.40;;;7.50;;
62435;SDS011;48480;50.252;18.848;2023-02-10T02:39:51;20.40;;;9.20;;
62435;SDS011;48480;50.252;18.848;2023-02-10T02:42:19;17.80;;;9.00;;
62435;SDS011;48480;50.252;18.848;2023-02-10T02:53:10;16.20;;;9.10;;
62435;SDS011;48480;50.252;18.848;2023-02-10T03:00:42;17.50;;;10.30;;
62435;SDS011;48480;50.252;18.848;2023-02-10T03:03:10;18.10;;;9.60;;
62435;SDS011;48480;50.252;18.848;2023-02-10T03:05:35;13.70;;;7.50;;
62435;SDS011;48480;50.252;18.848;2023-02-10T03:08:01;16.00;;;8.70;;
62435;SDS011;48480;50.252;18.848;2023-02-10T03:10:27;16.00;;;9.30;;
62435;SDS011;48480;50.252;18.848;2023-02-10T03:12:52;17.60;;;9.60;;
62435;SDS011;48480;50.252;18.848;2023-02-10T03:15:18;19.20;;;10.10;;
62435;SDS011;48480;50.252;18.848;2023-02-10T03:17:44;18.50;;;10.20;;
62435;SDS011;48480;50.252;18.848;2023-02-10T03:20:09;16.00;;;8.10;;
62435;SDS011;48480;50.252;18.848;2023-02-10T03:22:35;14.20;;;7.40;;
62435;SDS011;48480;50.252;18.848;2023-02-10T03:25:01;19.70;;;9.70;;
62435;SDS011;48480;50.252;18.848;2023-02-10T03:27:26;15.90;;;9.60;;
62435;SDS011;48480;50.252;18.848;2023-02-10T03:29:52;17.30;;;9.80;;
62435;SDS011;48480;50.252;18.848;2023-02-10T03:32:18;13.80;;;8.20;;
62435;SDS011;48480;50.252;18.848;2023-02-10T03:34:44;10.20;;;6.60;;
62435;SDS011;48480;50.252;18.848;2023-02-10T03:37:10;19.40;;;10.80;;
62435;SDS011;48480;50.252;18.848;2023-02-10T03:39:36;20.00;;;12.20;;
62435;SDS011;48480;50.252;18.848;2023-02-10T03:42:01;18.10;;;9.80;;
62435;SDS011;48480;50.252;18.848;2023-02-10T03:44:26;16.00;;;9.20;;
62435;SDS011;48480;50.252;18.848;2023-02-10T03:46:52;16.50;;;9.90;;
62435;SDS011;48480;50.252;18.848;2023-02-10T03:49:17;19.10;;;10.40;;
62435;SDS011;48480;50.252;18.848;2023-02-10T03:51:43;17.80;;;8.60;;
62435;SDS011;48480;50.252;18.848;2023-02-10T03:54:08;15.00;;;7.80;;
62435;SDS011;48480;50.252;18.848;2023-02-10T03:56:34;14.90;;;8.50;;
62435;SDS011;48480;50.252;18.848;2023-02-10T03:59:00;14.40;;;8.50;;
62435;SDS011;48480;50.252;18.848;2023-02-10T04:01:26;13.80;;;8.30;;
62435;SDS011;48480;50.252;18.848;2023-02-10T04:03:51;17.90;;;9.90;;
62435;SDS011;48480;50.252;18.848;2023-02-10T04:06:17;22.50;;;11.50;;
62435;SDS011;48480;50.252;18.848;2023-02-10T04:08:42;18.40;;;10.40;;
62435;SDS011;48480;50.252;18.848;2023-02-10T04:11:08;14.70;;;7.60;;
62435;SDS011;48480;50.252;18.848;2023-02-10T04:13:34;17.90;;;9.50;;
62435;SDS011;48480;50.252;18.848;2023-02-10T04:16:05;18.80;;;10.00;;
62435;SDS011;48480;50.252;18.848;2023-02-10T04:18:32;17.80;;;10.40;;
62435;SDS011;48480;50.252;18.848;2023-02-10T04:21:00;16.50;;;9.10;;
62435;SDS011;48480;50.252;18.848;2023-02-10T04:23:27;15.70;;;8.90;;
62435;SDS011;48480;50.252;18.848;2023-02-10T04:25:52;15.50;;;8.50;;
62435;SDS011;48480;50.252;18.848;2023-02-10T04:28:19;18.70;;;10.50;;
62435;SDS011;48480;50.252;18.848;2023-02-10T04:30:45;18.70;;;10.40;;
62435;SDS011;48480;50.252;18.848;2023-02-10T04:33:11;17.10;;;10.30;;
62435;SDS011;48480;50.252;18.848;2023-02-10T04:35:36;22.40;;;12.50;;
62435;SDS011;48480;50.252;18.848;2023-02-10T04:38:02;21.90;;;9.40;;
62435;SDS011;48480;50.252;18.848;2023-02-10T04:40:28;19.20;;;9.30;;
62435;SDS011;48480;50.252;18.848;2023-02-10T04:42:54;24.10;;;12.30;;
62435;SDS011;48480;50.252;18.848;2023-02-10T04:45:20;21.10;;;10.90;;
62435;SDS011;48480;50.252;18.848;2023-02-10T04:47:45;22.10;;;9.80;;
62435;SDS011;48480;50.252;18.848;2023-02-10T04:50:11;22.30;;;12.00;;
62435;SDS011;48480;50.252;18.848;2023-02-10T04:52:36;20.40;;;10.50;;
62435;SDS011;48480;50.252;18.848;2023-02-10T04:55:02;15.60;;;9.10;;
62435;SDS011;48480;50.252;18.848;2023-02-10T04:57:27;17.60;;;10.30;;
62435;SDS011;48480;50.252;18.848;2023-02-10T04:59:52;16.00;;;9.30;;
62435;SDS011;48480;50.252;18.848;2023-02-10T05:02:18;13.80;;;8.20;;
62435;SDS011;48480;50.252;18.848;2023-02-10T05:04:43;17.90;;;9.70;;
62435;SDS011;48480;50.252;18.848;2023-02-10T05:07:09;15.90;;;9.00;;
62435;SDS011;48480;50.252;18.848;2023-02-10T05:09:34;17.80;;;9.30;;
62435;SDS011;48480;50.252;18.848;2023-02-10T05:11:59;14.30;;;7.20;;
62435;SDS011;48480;50.252;18.848;2023-02-10T05:14:25;12.50;;;7.70;;
62435;SDS011;48480;50.252;18.848;2023-02-10T05:16:50;18.40;;;10.30;;
62435;SDS011;48480;50.252;18.848;2023-02-10T05:19:16;15.50;;;9.20;;
62435;SDS011;48480;50.252;18.848;2023-02-10T05:21:41;21.10;;;10.20;;
62435;SDS011;48480;50.252;18.848;2023-02-10T05:24:07;16.20;;;7.80;;
62435;SDS011;48480;50.252;18.848;2023-02-10T05:26:32;21.00;;;11.80;;
62435;SDS011;48480;50.252;18.848;2023-02-10T05:28:58;18.80;;;10.40;;
62435;SDS011;48480;50.252;18.848;2023-02-10T05:31:23;19.20;;;10.10;;
62435;SDS011;48480;50.252;18.848;2023-02-10T05:33:49;19.70;;;10.60;;
62435;SDS011;48480;50.252;18.848;2023-02-10T05:36:14;18.20;;;9.40;;
62435;SDS011;48480;50.252;18.848;2023-02-10T05:38:39;20.20;;;10.20;;
62435;SDS011;48480;50.252;18.848;2023-02-10T05:41:25;19.60;;;11.30;;
62435;SDS011;48480;50.252;18.848;2023-02-10T05:43:50;18.50;;;9.10;;
62435;SDS011;48480;50.252;18.848;2023-02-10T05:46:16;15.20;;;7.60;;
62435;SDS011;48480;50.252;18.848;2023-02-10T05:48:41;19.20;;;10.10;;
62435;SDS011;48480;50.252;18.848;2023-02-10T05:51:07;19.50;;;9.00;;
62435;SDS011;48480;50.252;18.848;2023-02-10T05:53:32;23.10;;;10.90;;
62435;SDS011;48480;50.252;18.848;2023-02-10T05:55:57;16.30;;;8.70;;
62435;SDS011;48480;50.252;18.848;2023-02-10T05:58:23;22.50;;;10.70;;
62435;SDS011;48480;50.252;18.848;2023-02-10T06:00:48;12.00;;;6.50;;
62435;SDS011;48480;50.252;18.848;2023-02-10T06:03:14;17.50;;;10.10;;
62435;SDS011;48480;50.252;18.848;2023-02-10T06:05:39;20.00;;;11.00;;
62435;SDS011;48480;50.252;18.848;2023-02-10T06:08:04;18.60;;;10.40;;
62435;SDS011;48480;50.252;18.848;2023-02-10T06:10:30;22.70;;;9.30;;
62435;SDS011;48480;50.252;18.848;2023-02-10T06:12:55;16.30;;;9.10;;
62435;SDS011;48480;50.252;18.848;2023-02-10T06:15:21;24.80;;;12.70;;
62435;SDS011;48480;50.252;18.848;2023-02-10T06:17:46;17.60;;;10.70;;
62435;SDS011;48480;50.252;18.848;2023-02-10T06:20:12;16.90;;;10.50;;
62435;SDS011;48480;50.252;18.848;2023-02-10T06:22:37;26.10;;;12.20;;
62435;SDS011;48480;50.252;18.848;2023-02-10T06:25:03;16.30;;;8.60;;
62435;SDS011;48480;50.252;18.848;2023-02-10T06:27:29;21.00;;;11.30;;
62435;SDS011;48480;50.252;18.848;2023-02-10T06:29:54;19.20;;;10.40;;
62435;SDS011;48480;50.252;18.848;2023-02-10T06:32:20;30.00;;;14.00;;
62435;SDS011;48480;50.252;18.848;2023-02-10T06:34:46;17.90;;;10.00;;
62435;SDS011;48480;50.252;18.848;2023-02-10T06:37:11;24.70;;;12.60;;
62435;SDS011;48480;50.252;18.848;2023-02-10T06:39:37;23.10;;;13.10;;
62435;SDS011;48480;50.252;18.848;2023-02-10T06:42:02;19.30;;;10.50;;
62435;SDS011;48480;50.252;18.848;2023-02-10T06:44:28;18.90;;;10.20;;
62435;SDS011;48480;50.252;18.848;2023-02-10T06:46:54;20.20;;;11.30;;
62435;SDS011;48480;50.252;18.848;2023-02-10T06:49:20;19.20;;;10.90;;
62435;SDS011;48480;50.252;18.848;2023-02-10T06:51:45;24.00;;;12.30;;
62435;SDS011;48480;50.252;18.848;2023-02-10T06:54:11;32.50;;;14.60;;
62435;SDS011;48480;50.252;18.848;2023-02-10T06:56:46;38.80;;;17.40;;
62435;SDS011;48480;50.252;18.848;2023-02-10T06:59:12;45.00;;;19.80;;
62435;SDS011;48480;50.252;18.848;2023-02-10T07:04:03;56.30;;;21.10;;
62435;SDS011;48480;50.252;18.848;2023-02-10T07:06:29;48.50;;;20.50;;
62435;SDS011;48480;50.252;18.848;2023-02-10T07:08:58;31.20;;;15.70;;
62435;SDS011;48480;50.252;18.848;2023-02-10T07:11:35;41.30;;;17.80;;
62435;SDS011;48480;50.252;18.848;2023-02-10T07:14:00;47.50;;;20.60;;
62435;SDS011;48480;50.252;18.848;2023-02-10T07:16:26;36.80;;;17.70;;
62435;SDS011;48480;50.252;18.848;2023-02-10T07:18:52;35.50;;;16.70;;
62435;SDS011;48480;50.252;18.848;2023-02-10T07:21:18;30.40;;;15.00;;
62435;SDS011;48480;50.252;18.848;2023-02-10T07:23:44;37.00;;;16.20;;
62435;SDS011;48480;50.252;18.848;2023-02-10T07:26:10;33.90;;;18.00;;
62435;SDS011;48480;50.252;18.848;2023-02-10T07:28:37;23.50;;;13.00;;
62435;SDS011;48480;50.252;18.848;2023-02-10T07:31:02;25.20;;;13.80;;
62435;SDS011;48480;50.252;18.848;2023-02-10T07:33:28;27.20;;;14.50;;
62435;SDS011;48480;50.252;18.848;2023-02-10T07:35:53;35.00;;;16.50;;
62435;SDS011;48480;50.252;18.848;2023-02-10T07:38:36;27.70;;;14.60;;
62435;SDS011;48480;50.252;18.848;2023-02-10T07:41:02;23.90;;;12.60;;
62435;SDS011;48480;50.252;18.848;2023-02-10T07:43:30;25.60;;;12.50;;
62435;SDS011;48480;50.252;18.848;2023-02-10T07:45:56;16.80;;;8.60;;
62435;SDS011;48480;50.252;18.848;2023-02-10T07:53:37;23.50;;;13.40;;
62435;SDS011;48480;50.252;18.848;2023-02-10T07:56:04;23.70;;;13.60;;
62435;SDS011;48480;50.252;18.848;2023-02-10T08:01:10;27.20;;;15.10;;
62435;SDS011;48480;50.252;18.848;2023-02-10T08:03:37;22.10;;;12.80;;
62435;SDS011;48480;50.252;18.848;2023-02-10T08:06:03;27.90;;;15.80;;
62435;SDS011;48480;50.252;18.848;2023-02-10T08:08:30;28.00;;;15.00;;
62435;SDS011;48480;50.252;18.848;2023-02-10T08:13:21;28.80;;;17.20;;
62435;SDS011;48480;50.252;18.848;2023-02-10T08:15:49;34.90;;;18.00;;
62435;SDS011;48480;50.252;18.848;2023-02-10T08:18:15;27.00;;;14.90;;
62435;SDS011;48480;50.252;18.848;2023-02-10T08:20:41;27.80;;;15.70;;
62435;SDS011;48480;50.252;18.848;2023-02-10T08:25:45;29.90;;;15.60;;
62435;SDS011;48480;50.252;18.848;2023-02-10T08:28:10;30.10;;;16.70;;
62435;SDS011;48480;50.252;18.848;2023-02-10T08:30:36;32.60;;;17.20;;
62435;SDS011;48480;50.252;18.848;2023-02-10T08:33:02;30.50;;;17.20;;
62435;SDS011;48480;50.252;18.848;2023-02-10T08:35:28;30.50;;;16.50;;
62435;SDS011;48480;50.252;18.848;2023-02-10T08:40:23;25.90;;;15.40;;
62435;SDS011;48480;50.252;18.848;2023-02-10T08:42:49;29.50;;;18.10;;
62435;SDS011;48480;50.252;18.848;2023-02-10T08:45:17;30.80;;;18.00;;
62435;SDS011;48480;50.252;18.848;2023-02-10T08:47:42;31.10;;;16.70;;
62435;SDS011;48480;50.252;18.848;2023-02-10T08:50:11;29.70;;;16.70;;
62435;SDS011;48480;50.252;18.848;2023-02-10T08:52:54;33.20;;;17.60;;
62435;SDS011;48480;50.252;18.848;2023-02-10T08:55:19;31.70;;;16.70;;
62435;SDS011;48480;50.252;18.848;2023-02-10T08:57:45;30.60;;;18.40;;
62435;SDS011;48480;50.252;18.848;2023-02-10T09:00:12;31.00;;;16.30;;
62435;SDS011;48480;50.252;18.848;2023-02-10T09:05:10;27.00;;;17.80;;
62435;SDS011;48480;50.252;18.848;2023-02-10T09:07:36;30.00;;;17.10;;
62435;SDS011;48480;50.252;18.848;2023-02-10T09:10:02;34.30;;;19.70;;
62435;SDS011;48480;50.252;18.848;2023-02-10T09:12:28;27.10;;;15.70;;
62435;SDS011;48480;50.252;18.848;2023-02-10T09:14:53;23.40;;;11.90;;
62435;SDS011;48480;50.252;18.848;2023-02-10T09:19:49;31.10;;;17.80;;
62435;SDS011;48480;50.252;18.848;2023-02-10T09:22:15;28.10;;;17.00;;
62435;SDS011;48480;50.252;18.848;2023-02-10T09:24:42;25.00;;;14.50;;
62435;SDS011;48480;50.252;18.848;2023-02-10T09:27:11;23.60;;;14.30;;
62435;SDS011;48480;50.252;18.848;2023-02-10T09:29:38;28.90;;;17.20;;
62435;SDS011;48480;50.252;18.848;2023-02-10T09:32:09;29.50;;;16.10;;
62435;SDS011;48480;50.252;18.848;2023-02-10T09:34:35;35.20;;;19.30;;
62435;SDS011;48480;50.252;18.848;2023-02-10T09:37:01;32.80;;;17.60;;
62435;SDS011;48480;50.252;18.848;2023-02-10T09:39:30;34.20;;;18.90;;
62435;SDS011;48480;50.252;18.848;2023-02-10T09:42:03;29.50;;;15.10;;
62435;SDS011;48480;50.252;18.848;2023-02-10T09:44:36;33.90;;;17.80;;
62435;SDS011;48480;50.252;18.848;2023-02-10T09:47:24;26.80;;;14.60;;
62435;SDS011;48480;50.252;18.848;2023-02-10T09:52:52;31.00;;;15.90;;
62435;SDS011;48480;50.252;18.848;2023-02-10T09:58:12;19.80;;;11.60;;
62435;SDS011;48480;50.252;18.848;2023-02-10T10:00:43;25.40;;;14.10;;
62435;SDS011;48480;50.252;18.848;2023-02-10T10:03:13;28.50;;;15.70;;
62435;SDS011;48480;50.252;18.848;2023-02-10T10:08:21;30.80;;;14.50;;
62435;SDS011;48480;50.252;18.848;2023-02-10T10:10:52;28.70;;;15.10;;
62435;SDS011;48480;50.252;18.848;2023-02-10T10:13:25;28.40;;;14.80;;
62435;SDS011;48480;50.252;18.848;2023-02-10T10:18:30;31.40;;;16.80;;
62435;SDS011;48480;50.252;18.848;2023-02-10T10:30:06;28.10;;;15.50;;
62435;SDS011;48480;50.252;18.848;2023-02-10T10:32:46;29.50;;;15.80;;
62435;SDS011;48480;50.252;18.848;2023-02-10T10:35:38;27.40;;;15.00;;
62435;SDS011;48480;50.252;18.848;2023-02-10T10:38:13;23.30;;;14.80;;
62435;SDS011;48480;50.252;18.848;2023-02-10T10:40:45;25.80;;;13.70;;
62435;SDS011;48480;50.252;18.848;2023-02-10T10:43:23;30.60;;;15.10;;
62435;SDS011;48480;50.252;18.848;2023-02-10T10:45:54;29.60;;;17.00;;
62435;SDS011;48480;50.252;18.848;2023-02-10T10:48:25;27.80;;;15.80;;
62435;SDS011;48480;50.252;18.848;2023-02-10T10:51:03;28.20;;;14.90;;
62435;SDS011;48480;50.252;18.848;2023-02-10T10:53:37;30.90;;;17.40;;
62435;SDS011;48480;50.252;18.848;2023-02-10T10:56:08;26.60;;;14.60;;
62435;SDS011;48480;50.252;18.848;2023-02-10T10:58:47;26.90;;;14.90;;
62435;SDS011;48480;50.252;18.848;2023-02-10T11:01:20;34.40;;;16.50;;
62435;SDS011;48480;50.252;18.848;2023-02-10T11:04:09;35.10;;;17.90;;
62435;SDS011;48480;50.252;18.848;2023-02-10T11:06:38;32.90;;;17.30;;
62435;SDS011;48480;50.252;18.848;2023-02-10T11:09:22;28.90;;;16.50;;
62435;SDS011;48480;50.252;18.848;2023-02-10T11:11:52;17.10;;;11.10;;
62435;SDS011;48480;50.252;18.848;2023-02-10T11:14:29;31.10;;;16.70;;
62435;SDS011;48480;50.252;18.848;2023-02-10T11:17:02;34.90;;;18.00;;
62435;SDS011;48480;50.252;18.848;2023-02-10T11:19:30;30.70;;;18.00;;
62435;SDS011;48480;50.252;18.848;2023-02-10T11:21:58;37.30;;;20.30;;
62435;SDS011;48480;50.252;18.848;2023-02-10T11:24:25;30.70;;;16.30;;
62435;SDS011;48480;50.252;18.848;2023-02-10T11:29:29;35.50;;;17.70;;
62435;SDS011;48480;50.252;18.848;2023-02-10T11:31:57;32.30;;;16.70;;
62435;SDS011;48480;50.252;18.848;2023-02-10T11:34:28;32.70;;;17.70;;
62435;SDS011;48480;50.252;18.848;2023-02-10T11:36:57;28.10;;;16.90;;
62435;SDS011;48480;50.252;18.848;2023-02-10T11:39:35;25.20;;;13.50;;
62435;SDS011;48480;50.252;18.848;2023-02-10T11:42:11;27.90;;;16.00;;
62435;SDS011;48480;50.252;18.848;2023-02-10T11:47:27;29.60;;;14.60;;
62435;SDS011;48480;50.252;18.848;2023-02-10T11:49:57;26.10;;;14.00;;
62435;SDS011;48480;50.252;18.848;2023-02-10T11:52:23;26.40;;;14.20;;
62435;SDS011;48480;50.252;18.848;2023-02-10T11:54:51;22.40;;;13.70;;
62435;SDS011;48480;50.252;18.848;2023-02-10T11:57:30;30.30;;;14.90;;
62435;SDS011;48480;50.252;18.848;2023-02-10T12:00:28;26.00;;;14.20;;
62435;SDS011;48480;50.252;18.848;2023-02-10T12:19:03;36.20;;;17.70;;
62435;SDS011;48480;50.252;18.848;2023-02-10T12:27:14;28.80;;;16.00;;
62435;SDS011;48480;50.252;18.848;2023-02-10T12:29:55;29.20;;;14.80;;
62435;SDS011;48480;50.252;18.848;2023-02-10T12:32:51;32.60;;;16.50;;
62435;SDS011;48480;50.252;18.848;2023-02-10T12:38:20;28.00;;;16.20;;
62435;SDS011;48480;50.252;18.848;2023-02-10T12:43:49;29.20;;;16.30;;
62435;SDS011;48480;50.252;18.848;2023-02-10T12:52:19;30.50;;;16.50;;
62435;SDS011;48480;50.252;18.848;2023-02-10T12:55:15;28.90;;;16.40;;
62435;SDS011;48480;50.252;18.848;2023-02-10T13:00:37;22.70;;;11.10;;
62435;SDS011;48480;50.252;18.848;2023-02-10T13:05:42;24.30;;;13.30;;
62435;SDS011;48480;50.252;18.848;2023-02-10T13:10:51;27.00;;;15.00;;
62435;SDS011;48480;50.252;18.848;2023-02-10T13:13:29;32.20;;;16.50;;
62435;SDS011;48480;50.252;18.848;2023-02-10T13:21:27;26.20;;;14.90;;
62435;SDS011;48480;50.252;18.848;2023-02-10T13:26:38;24.00;;;13.40;;
62435;SDS011;48480;50.252;18.848;2023-02-10T13:34:55;31.00;;;17.40;;
62435;SDS011;48480;50.252;18.848;2023-02-10T13:37:30;23.00;;;12.60;;
62435;SDS011;48480;50.252;18.848;2023-02-10T13:42:50;28.40;;;15.90;;
62435;SDS011;48480;50.252;18.848;2023-02-10T13:51:33;28.90;;;15.00;;
62435;SDS011;48480;50.252;18.848;2023-02-10T13:54:01;27.60;;;15.10;;
62435;SDS011;48480;50.252;18.848;2023-02-10T13:56:28;30.50;;;15.90;;
62435;SDS011;48480;50.252;18.848;2023-02-10T14:04:49;24.50;;;13.40;;
62435;SDS011;48480;50.252;18.848;2023-02-10T14:12:57;31.50;;;16.40;;
62435;SDS011;48480;50.252;18.848;2023-02-10T14:15:32;29.20;;;14.50;;
62435;SDS011;48480;50.252;18.848;2023-02-10T14:20:47;21.70;;;12.10;;
62435;SDS011;48480;50.252;18.848;2023-02-10T14:26:20;28.00;;;15.00;;
62435;SDS011;48480;50.252;18.848;2023-02-10T14:28:50;28.00;;;15.40;;
62435;SDS011;48480;50.252;18.848;2023-02-10T14:36:31;31.20;;;17.70;;
62435;SDS011;48480;50.252;18.848;2023-02-10T14:38:57;29.90;;;16.40;;
62435;SDS011;48480;50.252;18.848;2023-02-10T14:41:29;33.10;;;17.90;;
62435;SDS011;48480;50.252;18.848;2023-02-10T14:49:10;31.00;;;15.00;;
62435;SDS011;48480;50.252;18.848;2023-02-10T14:51:47;34.90;;;15.70;;
62435;SDS011;48480;50.252;18.848;2023-02-10T14:54:28;32.60;;;16.80;;
62435;SDS011;48480;50.252;18.848;2023-02-10T14:56:59;33.80;;;16.80;;
62435;SDS011;48480;50.252;18.848;2023-02-10T14:59:27;40.80;;;20.00;;
62435;SDS011;48480;50.252;18.848;2023-02-10T15:01:52;40.00;;;20.10;;
62435;SDS011;48480;50.252;18.848;2023-02-10T15:04:30;60.60;;;28.90;;
62435;SDS011;48480;50.252;18.848;2023-02-10T15:07:00;56.20;;;26.40;;
62435;SDS011;48480;50.252;18.848;2023-02-10T15:09:31;56.50;;;27.10;;
62435;SDS011;48480;50.252;18.848;2023-02-10T15:12:04;56.50;;;27.80;;
62435;SDS011;48480;50.252;18.848;2023-02-10T15:17:31;47.50;;;24.50;;
62435;SDS011;48480;50.252;18.848;2023-02-10T15:30:31;46.40;;;23.10;;
62435;SDS011;48480;50.252;18.848;2023-02-10T15:33:33;53.70;;;26.50;;
62435;SDS011;48480;50.252;18.848;2023-02-10T15:36:28;41.20;;;22.90;;
62435;SDS011;48480;50.252;18.848;2023-02-10T15:41:33;39.00;;;20.70;;
62435;SDS011;48480;50.252;18.848;2023-02-10T15:43:59;47.60;;;24.40;;
62435;SDS011;48480;50.252;18.848;2023-02-10T15:46:33;54.10;;;28.40;;
62435;SDS011;48480;50.252;18.848;2023-02-10T15:49:12;47.10;;;24.70;;
62435;SDS011;48480;50.252;18.848;2023-02-10T15:51:48;58.10;;;28.40;;
62435;SDS011;48480;50.252;18.848;2023-02-10T15:54:20;46.90;;;24.60;;
62435;SDS011;48480;50.252;18.848;2023-02-10T15:56:53;40.40;;;21.90;;
62435;SDS011;48480;50.252;18.848;2023-02-10T15:59:23;46.30;;;25.20;;
62435;SDS011;48480;50.252;18.848;2023-02-10T16:02:00;39.80;;;22.40;;
62435;SDS011;48480;50.252;18.848;2023-02-10T16:04:27;55.40;;;27.70;;
62435;SDS011;48480;50.252;18.848;2023-02-10T16:06:54;64.30;;;29.30;;
62435;SDS011;48480;50.252;18.848;2023-02-10T16:09:21;56.00;;;27.60;;
62435;SDS011;48480;50.252;18.848;2023-02-10T16:11:47;47.70;;;24.50;;
62435;SDS011;48480;50.252;18.848;2023-02-10T16:14:13;53.80;;;25.80;;
62435;SDS011;48480;50.252;18.848;2023-02-10T16:16:47;46.30;;;24.70;;
62435;SDS011;48480;50.252;18.848;2023-02-10T16:19:18;43.80;;;23.20;;
62435;SDS011;48480;50.252;18.848;2023-02-10T16:21:48;46.20;;;24.10;;
62435;SDS011;48480;50.252;18.848;2023-02-10T16:24:15;44.50;;;24.80;;
62435;SDS011;48480;50.252;18.848;2023-02-10T16:26:45;50.60;;;26.80;;
62435;SDS011;48480;50.252;18.848;2023-02-10T16:29:16;51.50;;;26.80;;
62435;SDS011;48480;50.252;18.848;2023-02-10T16:31:43;44.10;;;24.30;;
62435;SDS011;48480;50.252;18.848;2023-02-10T16:34:09;44.80;;;23.70;;
62435;SDS011;48480;50.252;18.848;2023-02-10T16:36:36;48.60;;;23.70;;
62435;SDS011;48480;50.252;18.848;2023-02-10T16:39:03;43.60;;;22.50;;
62435;SDS011;48480;50.252;18.848;2023-02-10T16:41:29;42.90;;;23.00;;
62435;SDS011;48480;50.252;18.848;2023-02-10T16:43:55;43.10;;;23.20;;
62435;SDS011;48480;50.252;18.848;2023-02-10T16:46:21;51.10;;;23.30;;
62435;SDS011;48480;50.252;18.848;2023-02-10T16:48:46;46.60;;;23.90;;
62435;SDS011;48480;50.252;18.848;2023-02-10T16:51:13;50.80;;;25.00;;
62435;SDS011;48480;50.252;18.848;2023-02-10T16:53:39;48.20;;;24.50;;
62435;SDS011;48480;50.252;18.848;2023-02-10T16:56:05;49.70;;;25.70;;
62435;SDS011;48480;50.252;18.848;2023-02-10T16:58:30;40.90;;;22.00;;
62435;SDS011;48480;50.252;18.848;2023-02-10T17:00:56;40.30;;;20.30;;
62435;SDS011;48480;50.252;18.848;2023-02-10T17:03:22;44.40;;;23.50;;
62435;SDS011;48480;50.252;18.848;2023-02-10T17:05:48;51.20;;;25.50;;
62435;SDS011;48480;50.252;18.848;2023-02-10T17:08:14;46.00;;;25.60;;
62435;SDS011;48480;50.252;18.848;2023-02-10T17:10:40;48.60;;;26.00;;
62435;SDS011;48480;50.252;18.848;2023-02-10T17:13:06;49.30;;;25.50;;
62435;SDS011;48480;50.252;18.848;2023-02-10T17:15:32;51.70;;;27.60;;
62435;SDS011;48480;50.252;18.848;2023-02-10T17:17:58;57.50;;;29.80;;
62435;SDS011;48480;50.252;18.848;2023-02-10T17:22:50;65.10;;;32.20;;
62435;SDS011;48480;50.252;18.848;2023-02-10T17:25:17;58.70;;;29.20;;
62435;SDS011;48480;50.252;18.848;2023-02-10T17:27:43;58.00;;;31.00;;
62435;SDS011;48480;50.252;18.848;2023-02-10T17:30:09;61.50;;;31.50;;
62435;SDS011;48480;50.252;18.848;2023-02-10T17:32:38;63.90;;;30.80;;
62435;SDS011;48480;50.252;18.848;2023-02-10T17:35:05;64.60;;;32.50;;
62435;SDS011;48480;50.252;18.848;2023-02-10T17:37:31;65.90;;;32.10;;
62435;SDS011;48480;50.252;18.848;2023-02-10T17:39:56;78.20;;;35.70;;